createdAt,value
2023-01-13T00:00:47.302Z,11.16
2023-01-13T00:05:59.456Z,12.43
2023-01-13T00:11:02.324Z,11.19
2023-01-13T00:16:07.962Z,12.28
2023-01-13T00:21:17.872Z,11.61
2023-01-13T00:26:27.121Z,11.62
2023-01-13T00:31:30.224Z,12.36
2023-01-13T00:36:33.335Z,12.01
2023-01-13T00:41:54.769Z,12.70
2023-01-13T00:46:57.673Z,11.74
2023-01-13T00:52:00.474Z,12.68
2023-01-13T00:57:04.908Z,12.05
2023-01-13T01:02:07.854Z,13.08
2023-01-13T01:07:10.724Z,11.63
2023-01-13T01:12:14.445Z,12.91
2023-01-13T01:17:17.255Z,12.01
2023-01-13T01:22:20.048Z,12.41
2023-01-13T01:27:22.846Z,12.79
2023-01-13T01:32:25.658Z,12.17
2023-01-13T01:37:28.448Z,13.06
2023-01-13T01:42:49.786Z,12.16
2023-01-13T01:47:58.118Z,12.88
2023-01-13T01:53:15.254Z,11.98
2023-01-13T01:58:32.805Z,13.07
2023-01-13T02:03:42.158Z,12.46
2023-01-13T02:08:46.393Z,12.38
2023-01-13T02:13:49.193Z,13.44
2023-01-13T02:19:02.361Z,12.76
2023-01-13T02:24:56.765Z,12.67
2023-01-13T02:30:41.742Z,13.26
2023-01-13T02:36:22.232Z,12.55
2023-01-13T02:41:55.646Z,13.21
2023-01-13T02:47:06.739Z,13.15
2023-01-13T02:52:15.792Z,12.18
2023-01-13T02:57:21.149Z,13.61
2023-01-13T03:02:25.820Z,12.91
2023-01-13T03:08:01.566Z,13.27
2023-01-13T03:13:15.712Z,13.17
2023-01-13T03:18:33.788Z,13.45
2023-01-13T03:23:51.952Z,13.05
2023-01-13T03:29:04.247Z,13.40
2023-01-13T03:34:22.035Z,13.74
2023-01-13T03:39:35.496Z,13.91
2023-01-13T03:45:09.103Z,13.14
2023-01-13T03:50:41.295Z,13.22
2023-01-13T03:55:50.251Z,13.77
2023-01-13T04:00:59.007Z,13.38
2023-01-13T04:06:27.984Z,13.74
2023-01-13T04:11:47.362Z,13.65
2023-01-13T04:16:50.319Z,13.87
2023-01-13T04:21:53.072Z,13.65
2023-01-13T04:26:56.606Z,13.62
2023-01-13T04:31:59.412Z,13.60
2023-01-13T04:37:02.117Z,13.98
2023-01-13T04:42:04.809Z,13.31
2023-01-13T04:47:07.491Z,13.65
2023-01-13T04:52:10.204Z,13.76
2023-01-13T04:57:12.956Z,13.80
2023-01-13T05:02:20.017Z,14.09
2023-01-13T05:07:22.905Z,13.98
2023-01-13T05:12:44.352Z,13.81
2023-01-13T05:17:47.784Z,12.85
2023-01-13T05:23:08.969Z,13.58
2023-01-13T05:28:11.839Z,13.70
2023-01-13T05:33:17.843Z,13.91
2023-01-13T05:38:20.574Z,14.14
2023-01-13T05:43:24.871Z,13.39
2023-01-13T05:48:31.004Z,13.81
2023-01-13T05:53:35.057Z,14.10
2023-01-13T05:58:37.931Z,13.13
2023-01-13T06:03:40.833Z,13.79
2023-01-13T06:08:43.508Z,14.05
2023-01-13T06:13:46.528Z,14.05
2023-01-13T06:18:49.435Z,14.23
2023-01-13T06:23:52.120Z,13.77
2023-01-13T06:28:54.895Z,12.70
2023-01-13T06:34:02.760Z,13.42
2023-01-13T06:39:09.525Z,13.97
2023-01-13T06:44:12.169Z,14.25
2023-01-13T06:49:14.903Z,14.05
2023-01-13T06:54:17.603Z,13.05
2023-01-13T06:59:20.287Z,13.76
2023-01-13T07:04:23.036Z,14.28
2023-01-13T07:09:25.843Z,14.44
2023-01-13T07:14:47.365Z,13.29
2023-01-13T07:19:50.077Z,13.69
2023-01-13T07:24:52.761Z,14.13
2023-01-13T07:29:56.180Z,14.08
2023-01-13T07:35:05.107Z,14.48
2023-01-13T07:40:08.621Z,14.37
2023-01-13T07:45:12.462Z,13.47
2023-01-13T07:50:15.328Z,14.30
2023-01-13T07:55:18.779Z,14.53
2023-01-13T08:00:22.039Z,14.64
2023-01-13T08:05:24.916Z,14.57
2023-01-13T08:10:27.944Z,14.71
2023-01-13T08:15:34.837Z,14.60
2023-01-13T08:20:37.731Z,14.25
2023-01-13T08:25:40.803Z,13.39
2023-01-13T08:30:43.833Z,14.39
2023-01-13T08:35:48.178Z,14.74
2023-01-13T08:40:51.081Z,13.81
2023-01-13T08:45:59.803Z,13.68
2023-01-13T08:51:08.853Z,14.86
2023-01-13T08:56:12.679Z,14.73
2023-01-13T09:01:21.459Z,14.87
2023-01-13T09:06:24.522Z,15.06
2023-01-13T09:11:50.535Z,13.58
2023-01-13T09:16:53.582Z,14.51
2023-01-13T09:21:57.522Z,14.74
2023-01-13T09:27:00.227Z,14.32
2023-01-13T09:32:03.349Z,13.43
2023-01-13T09:37:07.732Z,14.45
2023-01-13T09:42:54.992Z,14.56
2023-01-13T09:48:05.492Z,13.38
2023-01-13T09:53:17.150Z,14.33
2023-01-13T09:58:20.009Z,14.31
2023-01-13T10:03:35.026Z,14.72
2023-01-13T10:08:40.363Z,14.16
2023-01-13T10:13:43.967Z,14.38
2023-01-13T10:19:07.100Z,15.08
2023-01-13T10:24:52.657Z,14.06
2023-01-13T10:29:55.472Z,14.00
2023-01-13T10:34:58.219Z,14.64
2023-01-13T10:40:03.422Z,14.86
2023-01-13T10:45:19.355Z,13.80
2023-01-13T10:50:27.123Z,14.83
2023-01-13T10:55:39.012Z,15.11
2023-01-13T11:00:41.996Z,13.89
2023-01-13T11:06:03.342Z,14.49
2023-01-13T11:11:42.203Z,15.07
2023-01-13T11:16:53.476Z,15.02
2023-01-13T11:22:02.794Z,13.64
2023-01-13T11:27:27.176Z,14.99
2023-01-13T11:32:36.089Z,14.49
2023-01-13T11:37:44.194Z,13.80
2023-01-13T11:42:57.024Z,15.04
2023-01-13T11:48:01.554Z,15.09
2023-01-13T11:53:19.911Z,14.07
2023-01-13T11:58:50.323Z,15.26
2023-01-13T12:04:15.232Z,14.48
2023-01-13T12:09:56.175Z,14.58
2023-01-13T12:15:18.645Z,14.81
2023-01-13T12:21:13.905Z,13.85
2023-01-13T12:26:20.261Z,15.19
2023-01-13T12:31:25.288Z,14.10
2023-01-13T12:36:31.418Z,13.98
2023-01-13T12:42:20.971Z,15.09
2023-01-13T12:47:48.846Z,13.24
2023-01-13T12:52:53.010Z,14.44
2023-01-13T12:58:04.822Z,14.55
2023-01-13T13:03:08.253Z,14.12
2023-01-13T13:08:50.613Z,14.61
2023-01-13T13:13:53.649Z,14.09
2023-01-13T13:19:32.047Z,14.77
2023-01-13T13:24:34.787Z,13.31
2023-01-13T13:29:42.325Z,14.81
2023-01-13T13:34:57.210Z,13.71
2023-01-13T13:40:27.640Z,14.51
2023-01-13T13:45:49.510Z,14.83
2023-01-13T13:51:04.833Z,13.57
2023-01-13T13:56:17.529Z,14.84
2023-01-13T14:01:29.910Z,13.55
2023-01-13T14:06:33.082Z,14.30
2023-01-13T14:11:36.414Z,14.99
2023-01-13T14:16:41.057Z,13.71
2023-01-13T14:21:48.258Z,14.34
2023-01-13T14:26:53.241Z,15.10
2023-01-13T14:31:56.117Z,13.74
2023-01-13T14:36:59.122Z,14.60
2023-01-13T14:42:02.109Z,14.31
2023-01-13T14:47:19.775Z,14.06
2023-01-13T14:52:24.567Z,15.16
2023-01-13T14:57:31.942Z,14.19
2023-01-13T15:02:39.648Z,13.82
2023-01-13T15:07:53.628Z,15.06
2023-01-13T15:12:59.385Z,14.07
2023-01-13T15:18:11.925Z,14.10
2023-01-13T15:23:14.714Z,14.64
2023-01-13T15:28:23.666Z,14.07
2023-01-13T15:33:26.662Z,15.10
2023-01-13T15:38:29.346Z,14.66
2023-01-13T15:43:50.790Z,14.01
2023-01-13T15:48:54.707Z,15.09
2023-01-13T15:54:00.694Z,13.84
2023-01-13T15:59:05.293Z,14.41
2023-01-13T16:04:09.507Z,14.23
2023-01-13T16:09:14.403Z,14.14
2023-01-13T16:14:17.102Z,15.27
2023-01-13T16:19:20.045Z,13.40
2023-01-13T16:24:23.134Z,14.28
2023-01-13T16:29:25.787Z,14.90
2023-01-13T16:34:29.005Z,13.69
2023-01-13T16:39:31.780Z,13.94
2023-01-13T16:44:34.501Z,14.71
2023-01-13T16:49:37.196Z,14.45
2023-01-13T16:54:39.955Z,13.54
2023-01-13T16:59:42.712Z,14.45
2023-01-13T17:04:45.507Z,14.27
2023-01-13T17:09:48.316Z,13.40
2023-01-13T17:14:51.113Z,14.43
2023-01-13T17:19:54.449Z,13.88
2023-01-13T17:24:57.239Z,13.22
2023-01-13T17:29:59.983Z,14.23
2023-01-13T17:35:02.803Z,13.87
2023-01-13T17:40:06.595Z,12.42
2023-01-13T17:45:12.128Z,13.79
2023-01-13T17:50:17.173Z,13.83
2023-01-13T17:55:20.185Z,13.03
2023-01-13T18:00:22.924Z,14.41
2023-01-13T18:05:25.674Z,13.62
2023-01-13T18:10:28.341Z,13.49
2023-01-13T18:15:31.575Z,13.98
2023-01-13T18:20:53.733Z,12.92
2023-01-13T18:26:14.984Z,14.18
2023-01-13T18:31:17.686Z,12.79
2023-01-13T18:36:20.671Z,13.81
2023-01-13T18:41:42.213Z,13.44
2023-01-13T18:46:45.011Z,13.60
2023-01-13T18:51:47.710Z,13.93
2023-01-13T18:56:50.433Z,12.69
2023-01-13T19:01:53.353Z,13.61
2023-01-13T19:07:01.077Z,13.06
2023-01-13T19:12:06.239Z,13.05
2023-01-13T19:17:14.727Z,13.59
2023-01-13T19:22:28.686Z,12.84
2023-01-13T19:27:31.795Z,13.60
2023-01-13T19:32:34.480Z,12.40
2023-01-13T19:37:38.522Z,13.63
2023-01-13T19:43:02.544Z,12.61
2023-01-13T19:48:07.427Z,12.84
2023-01-13T19:53:17.958Z,13.44
2023-01-13T19:58:23.241Z,12.43
2023-01-13T20:03:31.119Z,13.51
2023-01-13T20:08:33.824Z,11.83
2023-01-13T20:13:36.700Z,13.07
2023-01-13T20:18:40.057Z,13.09
2023-01-13T20:23:44.307Z,12.17
2023-01-13T20:28:47.658Z,13.59
2023-01-13T20:33:50.944Z,11.89
2023-01-13T20:38:59.366Z,12.80
2023-01-13T20:44:02.383Z,12.33
2023-01-13T20:49:05.345Z,12.38
2023-01-13T20:54:09.431Z,13.02
2023-01-13T20:59:12.442Z,11.17
2023-01-13T21:04:15.464Z,12.83
2023-01-13T21:09:18.684Z,12.09
2023-01-13T21:14:43.327Z,12.13
2023-01-13T21:19:46.254Z,12.41
2023-01-13T21:24:49.499Z,11.49
2023-01-13T21:29:52.357Z,13.06
2023-01-13T21:34:55.372Z,11.98
2023-01-13T21:39:58.067Z,10.93
2023-01-13T21:45:20.115Z,12.39
2023-01-13T21:50:26.172Z,10.79
2023-01-13T21:55:29.340Z,11.98
2023-01-13T22:00:33.699Z,12.03
2023-01-13T22:05:37.099Z,11.23
2023-01-13T22:10:57.980Z,12.65
2023-01-13T22:16:04.945Z,10.79
2023-01-13T22:21:08.181Z,11.74
2023-01-13T22:26:11.475Z,12.22
2023-01-13T22:31:17.284Z,10.82
2023-01-13T22:36:20.474Z,12.50
2023-01-13T22:41:23.251Z,10.80
2023-01-13T22:46:26.372Z,12.04
2023-01-13T22:51:30.667Z,11.13
2023-01-13T22:56:33.536Z,10.99
2023-01-13T23:01:36.528Z,11.82
2023-01-13T23:06:40.405Z,9.82
2023-01-13T23:11:43.231Z,10.69
2023-01-13T23:16:47.165Z,11.94
2023-01-13T23:21:50.420Z,10.30
2023-01-13T23:26:53.111Z,10.76
2023-01-13T23:31:55.944Z,11.10
2023-01-13T23:36:58.805Z,10.57
2023-01-13T23:42:01.604Z,12.20
2023-01-13T23:47:04.347Z,11.02
2023-01-13T23:52:07.317Z,10.50
2023-01-13T23:57:10.217Z,11.67
